createdAt,value
2018-12-29T00:00:26.947Z,36.05
2018-12-29T00:02:34.143Z,36.32
2018-12-29T00:04:41.523Z,35.83
2018-12-29T00:06:48.720Z,35.91
2018-12-29T00:08:56.046Z,35.98
2018-12-29T00:11:03.649Z,36.97
2018-12-29T00:13:11.752Z,35.99
2018-12-29T00:15:18.994Z,36.31
2018-12-29T00:17:26.207Z,36.57
2018-12-29T00:19:34.039Z,36.71
2018-12-29T00:21:41.201Z,36.88
2018-12-29T00:23:48.508Z,37.23
2018-12-29T00:25:56.655Z,36.88
2018-12-29T02:06:42.158Z,43.00
2018-12-29T02:08:50.333Z,42.26
2018-12-29T02:10:57.465Z,41.56
2018-12-29T02:13:05.580Z,38.98
2018-12-29T02:15:13.528Z,38.97
2018-12-29T02:17:20.776Z,37.54
2018-12-29T02:19:29.474Z,38.59
2018-12-29T02:21:36.809Z,38.25
2018-12-29T02:23:43.996Z,37.77
2018-12-29T02:25:52.366Z,37.14
2018-12-29T02:27:59.970Z,36.47
2018-12-29T02:30:07.588Z,36.91
2018-12-29T02:32:14.931Z,36.45
2018-12-29T02:34:23.054Z,36.60
2018-12-29T02:36:31.818Z,36.41
2018-12-29T02:38:40.088Z,36.50
2018-12-29T02:40:47.368Z,36.38
2018-12-29T02:42:54.577Z,36.25
2018-12-29T02:45:01.862Z,36.55
2018-12-29T02:47:09.582Z,36.12
2018-12-29T02:49:16.781Z,36.26
2018-12-29T02:51:24.492Z,37.50
2018-12-29T02:53:31.845Z,36.81
2018-12-29T02:55:39.193Z,35.25
2018-12-29T02:57:46.616Z,35.05
2018-12-29T02:59:55.200Z,35.48
2018-12-29T03:02:02.579Z,35.68
2018-12-29T03:04:10.064Z,35.16
2018-12-29T03:06:17.626Z,36.26
2018-12-29T03:08:25.126Z,36.44
2018-12-29T03:10:32.392Z,36.29
2018-12-29T03:12:39.922Z,36.21
2018-12-29T03:14:47.964Z,36.55
2018-12-29T03:16:56.318Z,36.25
2018-12-29T03:19:03.586Z,36.25
2018-12-29T03:21:12.090Z,36.07
2018-12-29T03:23:19.473Z,34.68
2018-12-29T03:25:27.230Z,35.13
2018-12-29T03:27:36.238Z,34.62
2018-12-29T03:29:43.598Z,36.66
2018-12-29T03:31:50.928Z,34.54
2018-12-29T03:33:58.112Z,34.91
2018-12-29T03:36:05.522Z,35.87
2018-12-29T03:38:12.838Z,35.50
2018-12-29T03:40:20.751Z,34.62
2018-12-29T03:42:27.967Z,35.20
2018-12-29T03:44:36.092Z,35.39
2018-12-29T03:46:43.764Z,35.91
2018-12-29T03:48:50.927Z,35.85
2018-12-29T03:50:58.228Z,35.35
2018-12-29T03:53:05.334Z,35.34
2018-12-29T03:55:13.064Z,35.36
2018-12-29T03:57:20.288Z,36.37
2018-12-29T03:59:27.648Z,35.06
2018-12-29T04:01:34.912Z,35.08
2018-12-29T04:03:42.249Z,35.76
2018-12-29T04:05:49.342Z,35.31
2018-12-29T04:07:56.441Z,36.15
2018-12-29T04:10:04.222Z,35.72
2018-12-29T04:12:19.723Z,35.16
2018-12-29T04:14:27.878Z,34.72
2018-12-29T04:16:35.323Z,34.83
2018-12-29T04:18:43.483Z,35.09
2018-12-29T04:20:50.767Z,35.04
2018-12-29T04:22:58.012Z,35.89
2018-12-29T04:25:05.635Z,35.67
2018-12-29T04:27:13.543Z,36.03
2018-12-29T04:29:20.622Z,34.89
2018-12-29T04:31:27.897Z,35.60
2018-12-29T04:33:35.382Z,34.92
2018-12-29T04:35:43.134Z,34.50
2018-12-29T04:37:50.709Z,35.43
2018-12-29T04:39:57.991Z,35.00
2018-12-29T04:42:05.606Z,35.03
2018-12-29T04:44:12.899Z,35.58
2018-12-29T04:46:20.565Z,36.62
2018-12-29T04:48:27.677Z,36.04
2018-12-29T04:50:36.131Z,35.55
2018-12-29T04:52:43.512Z,35.63
2018-12-29T04:54:51.686Z,35.21
2018-12-29T04:56:58.781Z,35.54
2018-12-29T04:59:06.702Z,36.07
2018-12-29T05:01:13.987Z,36.51
2018-12-29T05:03:21.752Z,35.78
2018-12-29T05:05:30.032Z,35.11
2018-12-29T05:07:39.516Z,34.69
2018-12-29T05:09:46.617Z,35.20
2018-12-29T05:11:55.632Z,35.39
2018-12-29T05:14:03.231Z,36.06
2018-12-29T05:16:13.001Z,36.31
2018-12-29T05:18:19.627Z,34.91
2018-12-29T05:20:28.089Z,35.67
2018-12-29T05:24:47.988Z,35.25
2018-12-29T05:26:56.051Z,35.35
2018-12-29T05:29:03.618Z,36.28
2018-12-29T05:31:12.104Z,34.90
2018-12-29T05:33:19.227Z,35.08
2018-12-29T05:35:27.518Z,36.90
2018-12-29T05:37:35.089Z,35.76
2018-12-29T05:39:42.861Z,34.91
2018-12-29T05:41:50.265Z,36.28
2018-12-29T05:43:58.113Z,35.64
2018-12-29T05:46:06.418Z,35.50
2018-12-29T05:48:14.136Z,35.31
2018-12-29T05:50:21.129Z,35.33
2018-12-29T05:52:29.174Z,35.30
2018-12-29T05:54:37.545Z,35.14
2018-12-29T05:56:44.985Z,35.38
2018-12-29T05:58:53.612Z,35.00
2018-12-29T06:01:01.677Z,34.95
2018-12-29T06:03:09.756Z,35.49
2018-12-29T06:05:17.045Z,36.08
2018-12-29T06:07:24.596Z,35.99
2018-12-29T06:09:31.971Z,36.96
2018-12-29T06:11:39.400Z,35.90
2018-12-29T06:13:47.162Z,35.83
2018-12-29T06:15:54.724Z,35.76
2018-12-29T06:18:01.683Z,34.79
2018-12-29T06:20:09.405Z,36.77
2018-12-29T06:22:16.690Z,36.21
2018-12-29T06:24:23.982Z,35.96
2018-12-29T06:26:32.062Z,35.84
2018-12-29T06:28:39.402Z,35.17
2018-12-29T06:30:46.206Z,35.50
2018-12-29T06:32:53.366Z,35.53
2018-12-29T06:35:00.843Z,34.57
2018-12-29T06:37:07.522Z,33.72
2018-12-29T06:39:14.696Z,34.15
2018-12-29T06:41:21.756Z,34.13
2018-12-29T06:43:28.436Z,33.24
2018-12-29T06:45:36.246Z,33.96
2018-12-29T06:47:43.945Z,34.42
2018-12-29T06:49:51.210Z,33.69
2018-12-29T06:51:58.577Z,34.10
2018-12-29T06:54:05.716Z,35.02
2018-12-29T06:56:13.541Z,35.30
2018-12-29T06:58:20.770Z,35.26
2018-12-29T07:00:28.011Z,35.75
2018-12-29T07:02:35.100Z,36.25
2018-12-29T07:04:43.280Z,35.34
2018-12-29T07:06:51.434Z,34.94
2018-12-29T07:08:58.588Z,35.92
2018-12-29T07:11:06.032Z,36.26
2018-12-29T07:13:14.140Z,36.74
2018-12-29T07:15:21.755Z,35.93
2018-12-29T07:17:53.823Z,35.70
2018-12-29T07:20:27.829Z,36.02
2018-12-29T07:22:53.448Z,35.88
2018-12-29T07:25:00.951Z,36.10
2018-12-29T07:27:12.480Z,35.90
2018-12-29T07:29:19.548Z,36.50
2018-12-29T07:31:26.753Z,36.53
2018-12-29T07:33:34.815Z,36.26
2018-12-29T07:35:42.738Z,35.93
2018-12-29T07:37:50.223Z,35.93
2018-12-29T07:39:57.602Z,36.06
2018-12-29T07:42:04.966Z,35.13
2018-12-29T07:44:13.676Z,35.81
2018-12-29T07:46:20.835Z,35.16
2018-12-29T07:48:28.048Z,35.33
2018-12-29T07:50:35.313Z,35.05
2018-12-29T07:52:43.187Z,34.53
2018-12-29T07:54:50.419Z,35.46
2018-12-29T07:56:57.889Z,34.90
2018-12-29T07:59:05.488Z,35.29
2018-12-29T08:01:12.585Z,35.13
2018-12-29T08:03:19.845Z,34.69
2018-12-29T08:05:27.687Z,35.67
2018-12-29T08:07:35.509Z,35.28
2018-12-29T08:09:42.910Z,35.00
2018-12-29T08:11:50.185Z,34.87
2018-12-29T08:13:57.539Z,34.78
2018-12-29T08:16:05.036Z,34.60
2018-12-29T08:18:12.388Z,34.92
2018-12-29T08:20:19.633Z,36.32
2018-12-29T08:22:26.973Z,35.25
2018-12-29T08:24:34.100Z,35.01
2018-12-29T08:26:41.314Z,36.23
2018-12-29T08:28:49.318Z,35.94
2018-12-29T08:30:56.574Z,35.75
2018-12-29T08:33:04.110Z,35.86
2018-12-29T08:35:11.438Z,36.66
2018-12-29T08:37:18.503Z,36.51
2018-12-29T08:39:26.228Z,35.72
2018-12-29T08:41:33.335Z,35.02
2018-12-29T08:43:40.592Z,34.99
2018-12-29T08:45:47.867Z,34.53
2018-12-29T08:47:55.208Z,34.73
2018-12-29T08:50:02.355Z,35.79
2018-12-29T08:52:09.384Z,35.63
2018-12-29T08:54:16.984Z,35.86
2018-12-29T08:56:24.025Z,35.75
2018-12-29T08:58:31.325Z,35.71
2018-12-29T09:00:38.431Z,35.98
2018-12-29T09:02:45.721Z,35.31
2018-12-29T09:04:52.892Z,35.21
2018-12-29T09:07:00.275Z,35.88
2018-12-29T09:09:08.769Z,35.85
2018-12-29T09:11:15.997Z,36.39
2018-12-29T09:13:23.247Z,36.26
2018-12-29T09:15:30.261Z,35.89
2018-12-29T09:17:37.616Z,35.77
2018-12-29T09:19:45.798Z,36.00
2018-12-29T09:21:53.052Z,36.11
2018-12-29T09:24:00.357Z,36.21
2018-12-29T09:26:09.431Z,36.43
2018-12-29T09:28:17.024Z,36.21
2018-12-29T09:30:23.981Z,36.60
2018-12-29T09:32:31.143Z,35.65
2018-12-29T09:34:38.553Z,35.47
2018-12-29T09:36:45.455Z,34.98
2018-12-29T09:38:52.695Z,34.81
2018-12-29T09:40:59.904Z,34.60
2018-12-29T09:43:06.945Z,34.43
2018-12-29T09:45:14.093Z,36.09
2018-12-29T09:47:21.465Z,35.33
2018-12-29T09:49:28.830Z,35.92
2018-12-29T09:51:36.292Z,35.72
2018-12-29T09:53:43.327Z,35.27
2018-12-29T09:55:50.484Z,36.15
2018-12-29T09:57:57.633Z,36.18
2018-12-29T10:00:05.129Z,35.45
2018-12-29T10:02:12.540Z,35.32
2018-12-29T10:04:19.905Z,36.05
2018-12-29T10:06:27.014Z,35.76
2018-12-29T10:08:34.078Z,35.64
2018-12-29T10:10:41.339Z,35.84
2018-12-29T10:12:48.588Z,36.24
2018-12-29T10:14:55.580Z,35.71
2018-12-29T10:17:02.903Z,35.60
2018-12-29T10:19:09.999Z,34.98
2018-12-29T10:21:17.300Z,36.00
2018-12-29T10:23:24.358Z,35.10
2018-12-29T10:25:31.786Z,35.02
2018-12-29T10:27:39.017Z,34.11
2018-12-29T10:29:46.098Z,33.95
2018-12-29T10:31:54.135Z,34.18
2018-12-29T10:34:01.302Z,34.82
2018-12-29T10:36:08.553Z,33.72
2018-12-29T10:38:15.688Z,35.65
2018-12-29T10:40:23.618Z,35.20
2018-12-29T10:42:30.738Z,35.88
2018-12-29T10:44:38.047Z,35.49
2018-12-29T10:46:45.322Z,36.00
2018-12-29T10:48:52.680Z,35.96
2018-12-29T10:50:59.712Z,35.61
2018-12-29T10:53:06.856Z,35.64
2018-12-29T10:55:14.842Z,35.80
2018-12-29T10:57:22.288Z,35.65
2018-12-29T10:59:29.639Z,35.96
2018-12-29T11:01:36.836Z,35.97
2018-12-29T11:03:44.094Z,35.40
2018-12-29T11:05:52.147Z,35.75
2018-12-29T11:07:59.138Z,35.28
2018-12-29T11:10:06.493Z,34.65
2018-12-29T11:12:14.215Z,35.02
2018-12-29T11:14:21.341Z,34.63
2018-12-29T11:16:31.205Z,34.19
2018-12-29T11:18:38.555Z,35.17
2018-12-29T11:20:45.612Z,34.99
2018-12-29T11:22:53.044Z,36.07
2018-12-29T11:25:00.331Z,35.87
2018-12-29T11:27:07.689Z,35.52
2018-12-29T11:29:14.839Z,35.75
2018-12-29T11:31:21.978Z,35.51
2018-12-29T11:33:29.159Z,35.70
2018-12-29T11:35:36.387Z,35.94
2018-12-29T11:37:44.173Z,36.41
2018-12-29T11:39:51.538Z,36.35
2018-12-29T11:41:58.723Z,36.23
2018-12-29T11:44:05.794Z,36.31
2018-12-29T11:46:13.070Z,36.02
2018-12-29T11:48:20.486Z,35.31
2018-12-29T11:50:27.741Z,35.13
2018-12-29T11:52:34.702Z,36.62
2018-12-29T11:54:42.593Z,34.40
2018-12-29T11:56:50.453Z,34.90
2018-12-29T11:58:57.519Z,34.53
2018-12-29T12:01:05.420Z,34.03
2018-12-29T12:03:13.209Z,34.01
2018-12-29T12:05:20.404Z,34.52
2018-12-29T12:07:27.678Z,34.14
2018-12-29T12:09:34.963Z,35.21
2018-12-29T12:11:42.425Z,35.16
2018-12-29T12:13:49.548Z,35.97
2018-12-29T12:15:56.724Z,35.89
2018-12-29T12:18:03.733Z,36.03
2018-12-29T12:20:11.209Z,37.03
2018-12-29T12:22:18.657Z,36.11
2018-12-29T12:24:26.217Z,36.54
2018-12-29T12:26:33.827Z,37.20
2018-12-29T12:28:40.936Z,36.77
2018-12-29T12:30:47.975Z,36.93
2018-12-29T12:32:55.636Z,36.27
2018-12-29T12:35:02.757Z,36.34
2018-12-29T12:37:09.900Z,36.14
2018-12-29T12:39:17.280Z,35.29
2018-12-29T12:41:24.489Z,35.19
2018-12-29T12:43:32.014Z,34.95
2018-12-29T12:45:39.548Z,34.48
2018-12-29T12:47:46.999Z,34.33
2018-12-29T12:49:54.113Z,34.12
2018-12-29T12:52:01.397Z,33.99
2018-12-29T12:54:09.191Z,34.36
2018-12-29T12:56:16.431Z,34.34
2018-12-29T12:58:23.540Z,34.70
2018-12-29T13:00:30.884Z,34.09
2018-12-29T13:02:38.252Z,33.79
2018-12-29T13:04:45.576Z,33.83
2018-12-29T13:06:52.683Z,33.74
2018-12-29T13:08:59.873Z,33.77
2018-12-29T13:11:07.389Z,33.90
2018-12-29T13:13:14.636Z,34.00
2018-12-29T13:15:22.869Z,33.35
2018-12-29T13:17:30.280Z,33.42
2018-12-29T13:19:37.587Z,33.21
2018-12-29T13:21:45.644Z,33.05
2018-12-29T13:23:52.990Z,33.24
2018-12-29T13:26:00.614Z,33.21
2018-12-29T13:28:07.999Z,33.45
2018-12-29T13:30:15.725Z,33.41
2018-12-29T13:32:22.807Z,34.48
2018-12-29T13:34:29.926Z,34.89
2018-12-29T13:36:37.196Z,34.69
2018-12-29T13:38:44.491Z,35.68
2018-12-29T13:40:51.871Z,35.49
2018-12-29T13:42:59.014Z,36.11
2018-12-29T13:45:08.360Z,36.45
2018-12-29T13:47:15.595Z,36.27
2018-12-29T13:49:24.252Z,35.48
2018-12-29T13:51:32.217Z,35.52
2018-12-29T13:53:39.892Z,34.85
2018-12-29T13:55:46.962Z,34.48
2018-12-29T13:57:54.661Z,34.28
2018-12-29T14:00:02.349Z,33.88
2018-12-29T14:02:10.248Z,34.24
2018-12-29T14:04:18.224Z,34.63
2018-12-29T14:06:27.553Z,35.76
2018-12-29T14:08:34.717Z,35.30
2018-12-29T14:10:42.261Z,35.99
2018-12-29T14:12:49.773Z,35.09
2018-12-29T14:14:57.301Z,34.69
2018-12-29T14:17:04.443Z,34.58
2018-12-29T14:19:11.562Z,34.92
2018-12-29T14:21:19.606Z,34.57
2018-12-29T14:23:26.948Z,34.95
2018-12-29T14:25:34.241Z,34.53
2018-12-29T14:27:41.879Z,34.07
2018-12-29T14:29:50.074Z,34.27
2018-12-29T14:31:57.994Z,33.45
2018-12-29T14:34:05.115Z,33.21
2018-12-29T14:36:12.483Z,33.12
2018-12-29T14:38:19.941Z,33.13
2018-12-29T14:40:27.021Z,33.27
2018-12-29T14:42:34.168Z,33.34
2018-12-29T14:44:41.496Z,33.46
2018-12-29T14:46:49.879Z,33.58
2018-12-29T14:48:57.348Z,33.59
2018-12-29T14:51:05.675Z,33.73
2018-12-29T14:53:13.020Z,33.78
2018-12-29T14:55:20.362Z,33.71
2018-12-29T14:57:27.426Z,33.73
2018-12-29T14:59:34.672Z,33.77
2018-12-29T15:01:42.066Z,33.72
2018-12-29T15:03:54.302Z,33.63
2018-12-29T15:06:01.781Z,33.48
2018-12-29T15:08:09.412Z,33.47
2018-12-29T15:10:16.926Z,33.31
2018-12-29T15:12:24.326Z,33.13
2018-12-29T15:14:31.959Z,33.71
2018-12-29T15:16:39.155Z,32.88
2018-12-29T15:18:46.628Z,32.84
2018-12-29T15:20:54.275Z,32.74
2018-12-29T15:23:01.545Z,32.78
2018-12-29T15:25:09.391Z,32.82
2018-12-29T15:27:17.099Z,32.95
2018-12-29T15:29:24.391Z,32.91
2018-12-29T15:31:31.764Z,33.15
2018-12-29T15:33:39.322Z,33.15
2018-12-29T15:35:46.971Z,33.60
2018-12-29T15:37:54.421Z,33.88
2018-12-29T15:40:01.715Z,34.00
2018-12-29T15:42:31.279Z,34.12
2018-12-29T15:44:39.388Z,33.86
2018-12-29T15:46:47.456Z,34.02
2018-12-29T15:48:55.146Z,34.62
2018-12-29T15:51:03.100Z,34.72
2018-12-29T15:53:10.999Z,34.92
2018-12-29T15:55:24.754Z,34.84
2018-12-29T15:57:32.569Z,34.12
2018-12-29T15:59:40.991Z,33.98
2018-12-29T16:01:48.440Z,33.72
2018-12-29T16:03:55.488Z,33.45
2018-12-29T16:06:06.092Z,32.77
2018-12-29T16:08:13.633Z,33.14
2018-12-29T16:10:20.929Z,32.53
2018-12-29T16:12:28.263Z,32.77
2018-12-29T16:14:35.745Z,32.97
2018-12-29T16:16:42.993Z,33.07
2018-12-29T16:19:04.035Z,34.82
2018-12-29T16:21:11.515Z,33.49
2018-12-29T16:23:19.135Z,33.49
2018-12-29T16:25:27.078Z,33.62
2018-12-29T16:27:34.710Z,33.58
2018-12-29T16:29:42.819Z,33.64
2018-12-29T16:31:50.742Z,33.53
2018-12-29T16:36:11.416Z,33.81
2018-12-29T16:38:18.999Z,33.67
2018-12-29T16:40:26.479Z,33.63
2018-12-29T16:42:52.284Z,33.49
2018-12-29T16:45:00.177Z,33.30
2018-12-29T16:47:08.842Z,33.41
2018-12-29T16:49:16.832Z,33.42
2018-12-29T16:51:25.891Z,33.39
2018-12-29T16:53:33.626Z,32.92
2018-12-29T16:55:41.429Z,33.33
2018-12-29T16:58:10.260Z,33.10
2018-12-29T17:00:22.819Z,33.46
2018-12-29T17:04:55.900Z,32.63
2018-12-29T17:07:14.611Z,32.08
2018-12-29T17:09:21.787Z,33.41
2018-12-29T17:11:28.797Z,33.27
2018-12-29T17:13:37.890Z,31.09
2018-12-29T17:15:46.859Z,31.18
2018-12-29T17:18:00.718Z,31.13
2018-12-29T17:20:12.935Z,31.85
2018-12-29T17:22:24.557Z,31.38
2018-12-29T17:24:33.829Z,31.40
2018-12-29T17:26:42.998Z,31.43
2018-12-29T17:28:50.308Z,31.58
2018-12-29T17:31:01.170Z,31.74
2018-12-29T17:33:09.015Z,31.98
2018-12-29T17:35:19.371Z,32.04
2018-12-29T17:37:28.333Z,32.23
2018-12-29T17:39:36.465Z,32.28
2018-12-29T17:41:46.493Z,32.21
2018-12-29T17:43:53.856Z,32.96
2018-12-29T17:46:10.809Z,32.28
2018-12-29T17:48:20.347Z,32.41
2018-12-29T17:50:29.503Z,32.22
2018-12-29T17:52:41.915Z,32.37
2018-12-29T17:54:52.001Z,32.37
2018-12-29T17:57:02.336Z,32.56
2018-12-29T17:59:11.034Z,32.88
2018-12-29T18:01:32.017Z,32.66
2018-12-29T18:03:40.374Z,32.55
2018-12-29T18:06:10.916Z,32.82
2018-12-29T18:08:24.991Z,33.04
2018-12-29T18:10:36.020Z,33.41
2018-12-29T18:12:51.281Z,33.21
2018-12-29T18:15:01.583Z,33.40
2018-12-29T18:17:15.114Z,33.56
2018-12-29T18:19:30.480Z,33.82
2018-12-29T18:21:34.831Z,33.70
2018-12-29T18:23:43.691Z,33.77
2018-12-29T18:26:10.858Z,33.89
2018-12-29T18:28:16.859Z,34.47
2018-12-29T18:30:26.066Z,33.77
2018-12-29T18:32:33.366Z,33.43
2018-12-29T18:34:42.023Z,32.39
2018-12-29T18:36:54.241Z,32.44
2018-12-29T18:39:05.312Z,32.26
2018-12-29T18:41:16.256Z,31.67
2018-12-29T18:43:23.527Z,31.92
2018-12-29T18:45:45.180Z,32.38
2018-12-29T18:47:54.036Z,32.72
2018-12-29T18:50:04.053Z,33.06
2018-12-29T18:52:13.468Z,33.43
2018-12-29T18:54:22.398Z,34.11
2018-12-29T18:56:33.692Z,34.30
2018-12-29T18:58:42.521Z,34.37
2018-12-29T19:00:51.761Z,34.29
2018-12-29T19:03:01.907Z,33.78
2018-12-29T19:05:36.290Z,33.55
2018-12-29T19:07:43.534Z,33.94
2018-12-29T19:09:51.158Z,33.87
2018-12-29T19:12:11.321Z,33.72
2018-12-29T19:14:17.771Z,33.68
2018-12-29T19:16:28.245Z,33.61
2018-12-29T19:18:41.999Z,33.80
2018-12-29T19:20:52.029Z,33.71
2018-12-29T19:23:01.905Z,33.57
2018-12-29T19:25:11.364Z,33.97
2018-12-29T19:27:33.024Z,33.89
2018-12-29T19:29:46.208Z,33.99
2018-12-29T19:32:03.322Z,33.94
2018-12-29T19:34:44.465Z,35.48
2018-12-29T19:36:25.103Z,34.10
2018-12-29T19:38:34.520Z,34.00
2018-12-29T19:40:41.775Z,33.96
2018-12-29T19:42:55.076Z,34.22
2018-12-29T19:45:06.908Z,33.35
2018-12-29T19:47:19.441Z,33.51
2018-12-29T19:49:26.833Z,33.51
2018-12-29T19:51:35.239Z,33.31
2018-12-29T19:53:43.813Z,33.51
2018-12-29T19:55:54.927Z,33.22
2018-12-29T19:58:02.942Z,32.66
2018-12-29T20:00:14.000Z,32.64
2018-12-29T20:02:22.265Z,32.94
2018-12-29T20:04:46.039Z,33.76
2018-12-29T20:06:58.136Z,34.40
2018-12-29T20:09:10.743Z,32.14
2018-12-29T20:11:20.714Z,33.40
2018-12-29T20:13:27.800Z,33.07
2018-12-29T20:15:36.571Z,34.13
2018-12-29T20:17:43.722Z,32.85
2018-12-29T20:19:50.883Z,33.15
2018-12-29T20:21:58.793Z,33.18
2018-12-29T20:24:07.074Z,33.39
2018-12-29T20:26:17.115Z,33.58
2018-12-29T20:28:24.911Z,33.77
2018-12-29T20:30:32.823Z,34.15
2018-12-29T20:32:40.120Z,33.85
2018-12-29T20:34:47.349Z,33.89
2018-12-29T20:36:55.551Z,34.13
2018-12-29T20:39:02.740Z,33.80
2018-12-29T20:41:10.084Z,34.11
2018-12-29T20:43:17.977Z,33.35
2018-12-29T20:45:25.135Z,34.11
2018-12-29T20:47:34.782Z,34.44
2018-12-29T20:49:43.328Z,34.85
2018-12-29T20:51:51.416Z,35.00
2018-12-29T20:53:59.985Z,34.45
2018-12-29T20:56:09.279Z,34.75
2018-12-29T20:58:21.414Z,34.73
2018-12-29T21:00:28.490Z,34.92
2018-12-29T21:02:35.886Z,34.92
2018-12-29T21:04:44.488Z,35.26
2018-12-29T21:06:52.330Z,34.80
2018-12-29T21:08:59.489Z,35.29
2018-12-29T21:11:09.859Z,35.17
2018-12-29T21:13:20.805Z,34.84
2018-12-29T21:15:31.449Z,34.74
2018-12-29T21:17:42.521Z,34.36
2018-12-29T21:19:54.693Z,34.15
2018-12-29T21:22:04.886Z,33.99
2018-12-29T21:24:19.597Z,34.25
2018-12-29T21:26:38.427Z,34.30
2018-12-29T21:28:50.717Z,36.24
2018-12-29T21:31:01.111Z,34.97
2018-12-29T21:33:10.219Z,33.52
2018-12-29T21:35:24.206Z,33.63
2018-12-29T21:37:39.125Z,34.46
2018-12-29T21:39:54.760Z,33.63
2018-12-29T21:42:03.257Z,33.70
2018-12-29T21:44:13.202Z,33.96
2018-12-29T21:46:23.482Z,33.72
2018-12-29T21:48:33.610Z,33.83
2018-12-29T21:50:53.133Z,33.13
2018-12-29T21:53:04.532Z,33.42
2018-12-29T21:55:12.083Z,34.33
2018-12-29T21:57:19.237Z,34.70
2018-12-29T21:59:31.876Z,34.12
2018-12-29T22:01:41.412Z,34.48
2018-12-29T22:04:11.052Z,33.33
2018-12-29T22:06:28.677Z,32.58
2018-12-29T22:08:44.259Z,33.78
2018-12-29T22:10:56.109Z,32.87
2018-12-29T22:13:03.646Z,33.55
2018-12-29T22:15:11.642Z,33.54
2018-12-29T22:17:18.973Z,33.40
2018-12-29T22:19:36.559Z,33.77
2018-12-29T22:21:48.525Z,34.04
2018-12-29T22:23:55.303Z,32.60
2018-12-29T22:26:07.697Z,33.22
2018-12-29T22:28:15.138Z,32.57
2018-12-29T22:30:22.995Z,32.95
2018-12-29T22:32:31.921Z,32.85
2018-12-29T22:34:42.643Z,32.30
2018-12-29T22:36:54.665Z,32.41
2018-12-29T22:39:01.934Z,32.44
2018-12-29T22:42:46.438Z,32.43
2018-12-29T22:43:21.318Z,33.07
2018-12-29T22:45:31.312Z,32.87
2018-12-29T22:47:39.315Z,32.81
2018-12-29T22:49:47.880Z,33.09
2018-12-29T22:51:58.693Z,33.18
2018-12-29T22:54:08.803Z,33.80
2018-12-29T22:56:19.643Z,33.80
2018-12-29T22:58:39.681Z,33.70
2018-12-29T23:00:49.488Z,33.69
2018-12-29T23:02:57.533Z,33.76
2018-12-29T23:05:04.842Z,34.07
2018-12-29T23:07:12.385Z,34.23
2018-12-29T23:09:19.706Z,33.75
2018-12-29T23:11:26.913Z,33.88
2018-12-29T23:13:38.114Z,35.92
2018-12-29T23:15:55.985Z,33.30
2018-12-29T23:18:07.559Z,34.88
2018-12-29T23:20:31.868Z,33.43
2018-12-29T23:22:45.035Z,33.65
2018-12-29T23:24:56.763Z,33.99
2018-12-29T23:27:10.220Z,34.41
2018-12-29T23:29:30.155Z,33.81
2018-12-29T23:31:38.560Z,34.09
2018-12-29T23:33:46.579Z,34.39
2018-12-29T23:35:59.859Z,33.27
2018-12-29T23:38:12.351Z,34.53
2018-12-29T23:40:22.410Z,34.14
2018-12-29T23:42:42.418Z,33.93
2018-12-29T23:44:54.369Z,34.08
2018-12-29T23:47:07.962Z,35.51
2018-12-29T23:49:17.323Z,35.84
2018-12-29T23:51:33.470Z,35.43
2018-12-29T23:53:42.253Z,36.08
2018-12-29T23:55:54.955Z,36.22
2018-12-29T23:58:05.819Z,35.55
